Tiempo atmosférico en la estación meteorológica de Santillana del Mar, Altamira, Cantabria (150 m.)



Fecha
DESCASC
Temp. máxima en grados centígrados (hora)
DESCASC
Temp. mínima en grados centígrados (hora)
DESCASC
Temp. media en grados centígrados
DESCASC
Racha de viento máxima en m/sg (hora)
DESCASC
Velocidad máxima media en intervalos de 10 minutos(hora)
DESCASC
Precipitaciones diarias en mm
DESCASC
Precipitaciones de 00:00 a 06:00 en mm
DESCASC
Precipitaciones de 06:00 a 12:00 en mm
DESCASC
Precipitaciones de 12:00 a 18:00 en mm
DESCASC
Precipitaciones de 18:00 a 24:00 en mm
DESCASC
02-02-2019 8.8 (15:30) 4.3 (00:00) 6.6 24.72 (08:40) 16.11 (08:40) 16.6 10.8 2.8 0.6 2.4
29-01-2019 11.1 (14:30) 6.1 (00:00) 8.6 21.11 (19:10) 8.06 (14:40) 20.6 0 1.6 11.6 7.4
23-01-2019 11.1 (08:20) 8 (00:00) 9.6 20 (09:00) 10.28 (21:50) 28.8 14.4 0.6 4.8 9
28-01-2019 10.5 (07:30) 7.6 (00:00) 9 19.17 (15:20) 10.28 (15:20) 24 0.6 14.4 5.8 3.2
10-02-2019 16.1 (08:20) 7.6 (00:00) 11.9 17.22 (08:40) 6.67 (08:40) 5.8 0 4.2 1.6 0
01-02-2019 10.6 (16:00) 5.8 (00:00) 8.2 17.22 (23:59) 9.72 (23:59) 5.8 2 0.2 0 3.6
27-01-2019 9.7 (13:30) 6.8 (00:00) 8.3 16.39 (08:50) 8.89 (08:50) 19.8 2.6 12.2 2.4 2.6
20-01-2019 10.2 (15:50) 6.7 (00:00) 8.4 16.11 (11:00) 8.06 (11:10) 27.6 5.8 7.8 2.8 11.2
03-02-2019 9.8 (16:10) 1.3 (00:00) 5.6 15.28 (01:30) 8.61 (00:40) 1.2 0.4 0 0.8 0
24-01-2019 10.8 (17:20) 8.6 (00:00) 9.7 15.28 (01:00) 9.17 (01:00) 75.2 16.6 35.4 18.4 4.8
30-01-2019 11.6 (14:30) 5.8 (00:00) 8.7 12.5 (01:20) 5 (05:50) 7 2 0.6 0 4.4
25-01-2019 10.2 (00:40) 8.7 (00:00) 9.4 12.22 (10:00) 7.22 (10:00) 10.6 4.6 3.2 2.2 0.6
31-01-2019 14.8 (13:30) 7.8 (00:00) 11.3 12.22 (16:20) 5.56 (16:20) 26.6 12.4 1.6 6.8 5.8
22-01-2019 8.8 (23:59) 5.9 (00:00) 7.4 11.67 (14:20) 5 (23:30) 43.6 0 4.8 13.8 25
21-01-2019 10.4 (13:00) 5.9 (00:00) 8.1 11.39 (00:50) 5.83 (06:40) 4.2 1.8 2.2 0 0.2
07-02-2019 12.3 (13:30) 6.7 (00:00) 9.5 9.17 (08:40) 5.28 (09:00) 0.6 0 0.6 0 0
17-02-2019 21 (15:00) 9.2 (00:00) 15.1 8.33 (09:40) 5.28 (09:40) 0 0 0 0 0
06-02-2019 15 (13:00) 5.1 (00:00) 10 7.78 (15:50) 4.17 (06:50) 0 0 0 0 0
09-02-2019 16.8 (12:40) 6.6 (00:00) 11.7 7.22 (12:50) 5 (12:50) 0 0 0 0 0
11-02-2019 11.2 (15:00) 5.3 (00:00) 8.3 7.22 (12:40) 4.17 (15:10) 0.2 0 0 0.2 0
16-02-2019 22 (16:00) 6.1 (00:00) 14 7.22 (22:50) 4.17 (22:40) 0 0 0 0 0
26-01-2019 12.1 (13:00) 5.3 (00:00) 8.7 6.67 (16:30) 3.89 (16:30) 0 0 0 0 0
19-01-2019 10 (13:50) 6.3 (00:00) 8.2 6.67 (12:20) 4.17 (11:10) 6.6 0.4 0 1.6 4.6
12-02-2019 13.6 (14:30) 3.6 (00:00) 8.6 6.67 (16:00) 3.89 (16:30) 0 0 0 0 0
04-02-2019 13.9 (14:20) 1.2 (00:00) 7.5 6.11 (07:40) 4.17 (06:10) 0.2 0 0 0 0.2
05-02-2019 15.8 (12:40) 6.9 (00:00) 11.4 6.11 (09:50) 3.61 (09:40) 0 0 0 0 0
08-02-2019 13.3 (16:10) 4 (00:00) 8.7 5.83 (13:40) 3.61 (14:50) 0 0 0 0 0
14-02-2019 19.4 (13:00) 5.8 (00:00) 12.6 5.83 (14:50) 3.89 (03:20) 0 0 0 0 0
15-02-2019 21.9 (14:20) 9 (00:00) 15.4 5.28 (18:00) 3.89 (01:50) 0 0 0 0 0
13-02-2019 14.5 (14:40) 2 (00:00) 8.3 5 (08:50) 3.61 (08:00) 0 0 0 0 0

Gráficas

Temp. máximas Temp. mínimas Temp. medias Precipitaciones Rachas de viento máximas Velocidades máximas media en intervalos de 10 minutos

Datos horarios

Fecha y hora oficial Temperatura (ºC) Velocidad del viento (km/h) Dirección del viento Racha (km/h) Dirección de racha Precipitación (mm) Presión (hPa) Tendencia (hPa) Humedad (%)
2019-02-17 23:00:00 10.2 3 Sur 14 Sudoeste 0 -- -- 75
2019-02-17 22:00:00 10.6 6 Sudoeste 13 Sudoeste 0 -- -- 79
2019-02-17 21:00:00 11.1 8 Sudoeste 12 Sudoeste 0 -- -- 74
2019-02-17 20:00:00 11.6 7 Sudoeste 26 Noroeste 0 -- -- 77
2019-02-17 19:00:00 12.9 9 Norte 14 Noroeste 0 -- -- 61
2019-02-17 18:00:00 15.2 4 Noroeste 18 Noroeste 0 -- -- 51
2019-02-17 17:00:00 16.2 11 Noroeste 22 Noroeste 0 -- -- 54
2019-02-17 16:00:00 17.6 10 Norte 21 Noroeste 0 -- -- 50
2019-02-17 15:00:00 21 6 Nordeste 14 Sudeste 0 -- -- 36
2019-02-17 14:00:00 20.3 10 Sudeste 17 Sudeste 0 -- -- 37
2019-02-17 13:00:00 18.8 12 Sur 20 Sur 0 -- -- 44
2019-02-17 12:00:00 17.6 13 Sur 23 Sur 0 -- -- 43
2019-02-17 11:00:00 16.2 13 Sur 21 Sudeste 0 -- -- 47
2019-02-17 10:00:00 14 14 Sudeste 30 Sur 0 -- -- 49
2019-02-17 09:00:00 11.4 11 Sur 20 Sur 0 -- -- 52
2019-02-17 08:00:00 10 6 Sudoeste 9 Oeste 0 -- -- 64
2019-02-17 07:00:00 11.1 2 Noroeste 12 Noroeste 0 -- -- 63
2019-02-17 06:00:00 12.5 3 Norte 10 Norte 0 -- -- 54
2019-02-17 05:00:00 12.1 3 Norte 9 Noroeste 0 -- -- 53
2019-02-17 04:00:00 13.6 5 Noroeste 8 Noroeste 0 -- -- 47
2019-02-17 03:00:00 12.9 5 Sudoeste 10 Sur 0 -- -- 44
2019-02-17 02:00:00 13.1 6 Sur 13 Sur 0 -- -- 46
2019-02-17 01:00:00 13.2 8 Sudoeste 22 Sur 0 -- -- 48
2019-02-17 00:00:00 13.3 12 Sur 19 Sur 0 -- -- 50
2019-02-16 23:00:00 13.7 14 Sur 26 Sur 0 -- -- 51
2019-02-16 22:00:00 13.9 11 Sudoeste 14 Sudoeste 0 -- -- 43
2019-02-16 21:00:00 14.8 9 Sur 17 Sur 0 -- -- 44
2019-02-16 20:00:00 15.4 11 Sudoeste 16 Sudoeste 0 -- -- 52
2019-02-16 19:00:00 14.9 6 Sudoeste 10 Sudoeste 0 -- -- 58
2019-02-16 18:00:00 15.5 2 Noroeste 9 Noroeste 0 -- -- 61
2019-02-16 17:00:00 18 5 Norte 20 Sudeste 0 -- -- 53
2019-02-16 16:00:00 22 11 Sudeste 22 Sudeste 0 -- -- 35
2019-02-16 15:00:00 21.5 14 Sudeste 22 Sudeste 0 -- -- 36
2019-02-16 14:00:00 20.7 11 Sudeste 22 Sudeste 0 -- -- 40
2019-02-16 13:00:00 19.7 11 Sudeste 19 Sudeste 0 -- -- 36
2019-02-16 12:00:00 17.7 8 Sur 21 Sudeste 0 -- -- 42
2019-02-16 11:00:00 14.6 13 Sur 22 Sudeste 0 -- -- 50
2019-02-16 10:00:00 11.1 11 Sur 14 Sur 0 -- -- 59
2019-02-16 09:00:00 8.3 10 Sur 15 Sur 0 -- -- 65
2019-02-16 08:00:00 6.8 10 Sudoeste 14 Sudoeste 0 -- -- 69
2019-02-16 07:00:00 7.2 13 Sudoeste 16 Sudoeste 0 -- -- 68
2019-02-16 06:00:00 6.7 9 Sudoeste 15 Sudoeste 0 -- -- 70
2019-02-16 05:00:00 7.4 12 Sudoeste 17 Sudoeste 0 -- -- 70
2019-02-16 04:00:00 7.1 9 Sur 17 Sudoeste 0 -- -- 70
2019-02-16 03:00:00 9.6 7 Sudoeste 18 Sudoeste 0 -- -- 60
2019-02-16 02:00:00 9.6 8 Sudoeste 14 Sudoeste 0 -- -- 61
2019-02-16 01:00:00 8.7 6 Sudoeste 13 Sudoeste 0 -- -- 67
2019-02-16 00:00:00 10.5 6 Sudoeste 15 Sudoeste 0 -- -- 60
2019-02-15 23:00:00 10.3 11 Sudoeste 17 Sudoeste 0 -- -- 62
2019-02-15 22:00:00 10.9 9 Sudoeste 12 Sudoeste 0 -- -- 58
2019-02-15 21:00:00 11.3 6 Sudoeste 8 Sudoeste 0 -- -- 49
2019-02-15 20:00:00 12.5 4 Noroeste 8 Noroeste 0 -- -- 44
2019-02-15 19:00:00 13.6 3 Sudoeste 18 Norte 0 -- -- 42
2019-02-15 18:00:00 15.2 13 Norte 19 Noroeste 0 -- -- 44
2019-02-15 17:00:00 18.5 6 Norte 15 Noroeste 0 -- -- 41
2019-02-15 16:00:00 18.8 11 Norte 18 Noroeste 0 -- -- 41
2019-02-15 15:00:00 21.3 8 Noroeste 11 Noroeste 0 -- -- 33
2019-02-15 14:00:00 21.6 4 Sudeste 12 Sudeste 0 -- -- 31
2019-02-15 13:00:00 20.4 6 Sur 10 Sur 0 -- -- 38
2019-02-15 12:00:00 18.5 5 Sur 8 Sudoeste 0 -- -- 40
2019-02-15 11:00:00 15.9 8 Sur 14 Sur 0 -- -- 49
2019-02-15 10:00:00 13.4 10 Sur 15 Sudoeste 0 -- -- 51
2019-02-15 09:00:00 11.5 11 Sudoeste 17 Sudoeste 0 -- -- 49
2019-02-15 08:00:00 10 9 Sudoeste 16 Sudoeste 0 -- -- 49
2019-02-15 07:00:00 11.1 10 Sudoeste 17 Sudoeste 0 -- -- 45
2019-02-15 06:00:00 11 12 Sudoeste 17 Oeste 0 -- -- 46
2019-02-15 05:00:00 11.5 13 Sudoeste 17 Sudoeste 0 -- -- 44
2019-02-15 04:00:00 12.4 9 Sudoeste 17 Sudoeste 0 -- -- 41
2019-02-15 03:00:00 11.9 12 Sudoeste 18 Sudoeste 0 -- -- 42
2019-02-15 02:00:00 11.8 13 Sudoeste 19 Sudoeste 0 -- -- 47
2019-02-15 01:00:00 11.9 12 Sudoeste 15 Sudoeste 0 -- -- 48
2019-02-15 00:00:00 12 9 Sudoeste 15 Sudoeste 0 -- -- 50
2019-02-14 23:00:00 11.8 10 Sudoeste 14 Sudoeste 0 -- -- 61
2019-02-14 22:00:00 11.5 8 Sudoeste 16 Sudoeste 0 -- -- 69
2019-02-14 21:00:00 11.1 11 Sudoeste 15 Sudoeste 0 -- -- 75
2019-02-14 20:00:00 11.5 7 Sur 8 Sur 0 -- -- 74
2019-02-14 19:00:00 12.2 5 Sur 8 Noroeste 0 -- -- 71
2019-02-14 18:00:00 12.4 3 Norte 10 Norte 0 -- -- 66
2019-02-14 17:00:00 13.8 6 Norte 15 Norte 0 -- -- 71
2019-02-14 16:00:00 14.2 9 Norte 21 Noroeste 0 -- -- 72
2019-02-14 15:00:00 14 14 Norte 21 Noroeste 0 -- -- 74
2019-02-14 14:00:00 15.2 8 Norte 15 Norte 0 -- -- 68
2019-02-14 13:00:00 19.4 7 Sudeste 13 Sur 0 -- -- 40
2019-02-14 12:00:00 16 3 Norte 6 Nordeste 0 -- -- 52
2019-02-14 11:00:00 14.1 2 Nordeste 11 Sudoeste 0 -- -- 54
2019-02-14 10:00:00 11.1 2 Sudoeste 12 Sudoeste 0 -- -- 62
2019-02-14 09:00:00 8.6 6 Sudoeste 12 Sudoeste 0 -- -- 62
2019-02-14 08:00:00 7.7 3 Sudoeste 12 Sudoeste 0 -- -- 64
2019-02-14 07:00:00 8.2 7 Sudoeste 15 Sudoeste 0 -- -- 63
2019-02-14 06:00:00 8.1 8 Sudoeste 14 Sudoeste 0 -- -- 63
2019-02-14 05:00:00 6.1 6 Sudoeste 19 Sudoeste 0 -- -- 76
2019-02-14 04:00:00 6.9 14 Sudoeste 18 Sudoeste 0 -- -- 76
2019-02-14 03:00:00 6.6 8 Sudoeste 16 Sudoeste 0 -- -- 77
2019-02-14 02:00:00 6.5 7 Sur 17 Sudoeste 0 -- -- 78
2019-02-14 01:00:00 6.2 11 Sur 15 Sudoeste 0 -- -- 83
2019-02-14 00:00:00 8.4 5 Sudoeste 14 Sudoeste 0 -- -- 73
2019-02-13 23:00:00 6.5 9 Sudoeste 14 Sudoeste 0 -- -- 89
2019-02-13 22:00:00 7.7 8 Sur 10 Sur 0 -- -- 84
2019-02-13 21:00:00 8.8 4 Sudoeste 6 Sur 0 -- -- 83
2019-02-13 20:00:00 9.1 5 Sudoeste 6 Sudoeste 0 -- -- 84
2019-02-13 19:00:00 9.2 0 Calma 5 Norte 0 -- -- 83
2019-02-13 18:00:00 10.6 3 Norte 8 Norte 0 -- -- 76
2019-02-13 17:00:00 12.4 5 Norte 14 Norte 0 -- -- 70
2019-02-13 16:00:00 13.3 9 Norte 14 Norte 0 -- -- 65
2019-02-13 15:00:00 14.4 6 Norte 10 Norte 0 -- -- 64
2019-02-13 14:00:00 14.1 5 Norte 10 Norte 0 -- -- 62
2019-02-13 13:00:00 13.2 4 Nordeste 5 Norte 0 -- -- 61
2019-02-13 12:00:00 11.8 4 Sur 8 Sur 0 -- -- 66
2019-02-13 11:00:00 9 7 Sur 13 Sudoeste 0 -- -- 67
2019-02-13 10:00:00 7.1 6 Sur 14 Sudoeste 0 -- -- 73
2019-02-13 09:00:00 4.9 11 Sudoeste 18 Sudoeste 0 -- -- 77
2019-02-13 08:00:00 3.7 13 Sudoeste 17 Sudoeste 0 -- -- 82
2019-02-13 07:00:00 2 5 Sur 8 Sudoeste 0 -- -- 88
2019-02-13 06:00:00 2.9 5 Sudoeste 9 Sudoeste 0 -- -- 90
2019-02-13 05:00:00 4 4 Sur 11 Sudoeste 0 -- -- 84
2019-02-13 04:00:00 4.7 4 Sudoeste 12 Sudoeste 0 -- -- 84
2019-02-13 03:00:00 4 6 Sudoeste 12 Sudoeste 0 -- -- 94
2019-02-13 02:00:00 4.4 7 Sudoeste 12 Sudoeste 0 -- -- 96
2019-02-13 01:00:00 5.1 6 Sur 8 Sur 0 -- -- 94
2019-02-13 00:00:00 5.6 4 Sur 7 Sudeste 0 -- -- 92
2019-02-12 23:00:00 6.3 5 Sur 9 Sudoeste 0 -- -- 91
2019-02-12 22:00:00 6.7 3 Sur 5 Sur 0 -- -- 88
2019-02-12 21:00:00 7.1 0 Calma 9 Norte 0 -- -- 86
2019-02-12 20:00:00 7.6 4 Norte 14 Nordeste 0 -- -- 83
2019-02-12 19:00:00 9 7 Nordeste 14 Nordeste 0 -- -- 77
2019-02-12 18:00:00 10.5 9 Nordeste 19 Nordeste 0 -- -- 73
2019-02-12 17:00:00 12.1 10 Nordeste 23 Nordeste 0 -- -- 70
2019-02-12 16:00:00 12.6 14 Nordeste 24 Nordeste 0 -- -- 65
2019-02-12 15:00:00 13.3 12 Nordeste 20 Este 0 -- -- 62
2019-02-12 14:00:00 13.2 12 Este 19 Este 0 -- -- 61
2019-02-12 13:00:00 11.2 10 Nordeste 17 Nordeste 0 -- -- 68
2019-02-12 12:00:00 10.1 5 Este 9 Sudeste 0 -- -- 65
2019-02-12 11:00:00 8.3 5 Sur 12 Sudoeste 0 -- -- 74
2019-02-12 10:00:00 6.5 8 Sudoeste 17 Sudoeste 0 -- -- 76
2019-02-12 09:00:00 4.4 10 Sudoeste 15 Sudoeste 0 -- -- 82
2019-02-12 08:00:00 4.2 0 Calma 8 Sudoeste 0 -- -- 87
2019-02-12 07:00:00 4.7 6 Sudeste 14 Sudeste 0 -- -- 86
2019-02-12 06:00:00 4.1 6 Sur 12 Sudeste 0 -- -- 90
2019-02-12 05:00:00 3.9 6 Sudeste 16 Sudeste 0 -- -- 93
2019-02-12 04:00:00 3.9 8 Sudeste 10 Sudeste 0 -- -- 92
2019-02-12 03:00:00 4.3 5 Sur 11 Sur 0 -- -- 94
2019-02-12 02:00:00 4.1 6 Sur 11 Sudoeste 0 -- -- 95
2019-02-12 01:00:00 4.6 9 Sudoeste 12 Sudoeste 0 -- -- 95
2019-02-12 00:00:00 5.3 8 Sudoeste 15 Sudoeste 0 -- -- 92
2019-02-11 23:00:00 6.7 8 Sudoeste 13 Oeste 0 -- -- 89
2019-02-11 22:00:00 7.2 7 Sudoeste 13 Sudoeste 0 -- -- 88
2019-02-11 21:00:00 7.5 7 Sudoeste 11 Sudoeste 0 -- -- 88
2019-02-11 20:00:00 8.2 0 Calma 2 Norte 0 -- -- 85
2019-02-11 19:00:00 8.6 0 Calma 4 Norte 0 -- -- 82
2019-02-11 18:00:00 9.6 4 Noroeste 14 Noroeste 0 -- -- 79
2019-02-11 17:00:00 10.8 10 Noroeste 14 Noroeste 0 -- -- 72
2019-02-11 16:00:00 10.6 10 Norte 24 Norte 0 -- -- 74
2019-02-11 15:00:00 11.2 10 Norte 21 Nordeste 0 -- -- 76
2019-02-11 14:00:00 9.8 6 Noroeste 17 Sudoeste 0 -- -- 77
2019-02-11 13:00:00 9.7 5 Noroeste 26 Noroeste 0.2 -- -- 83
2019-02-11 12:00:00 10.6 12 Noroeste 23 Oeste 0 -- -- 66
2019-02-11 11:00:00 9.4 7 Oeste 17 Sudoeste 0 -- -- 72
2019-02-11 10:00:00 8.1 6 Sudoeste 23 Sudoeste 0 -- -- 79
2019-02-11 09:00:00 8 8 Sudoeste 22 Sudoeste 0 -- -- 79
2019-02-11 08:00:00 7.5 4 Oeste 18 Oeste 0 -- -- 82
2019-02-11 07:00:00 7.6 9 Oeste 23 Oeste 0 -- -- 81
2019-02-11 06:00:00 7.7 8 Oeste 22 Noroeste 0 -- -- 85
2019-02-11 05:00:00 7.6 7 Oeste 18 Oeste 0 -- -- 76
2019-02-11 04:00:00 7.9 9 Oeste 23 Oeste 0 -- -- 73
2019-02-11 03:00:00 7.8 8 Oeste 22 Oeste 0 -- -- 75
2019-02-11 02:00:00 7.7 8 Oeste 21 Oeste 0 -- -- 76
2019-02-11 01:00:00 8 10 Oeste 25 Oeste 0 -- -- 76
2019-02-11 00:00:00 8.1 10 Oeste 22 Oeste 0 -- -- 77
2019-02-10 23:00:00 8.1 10 Oeste 22 Sudoeste 0 -- -- 80
2019-02-10 22:00:00 7.7 5 Sudoeste 18 Oeste 0 -- -- 84
2019-02-10 21:00:00 8.3 7 Oeste 20 Oeste 0 -- -- 85
2019-02-10 20:00:00 8.5 10 Oeste 26 Oeste 0 -- -- 86
2019-02-10 19:00:00 8.8 10 Noroeste 22 Oeste 0 -- -- 81
2019-02-10 18:00:00 9 9 Oeste 19 Oeste 0 -- -- 86
2019-02-10 17:00:00 9 7 Oeste 27 Oeste 0 -- -- 91
2019-02-10 16:00:00 9.1 13 Oeste 34 Oeste 0.4 -- -- 91
2019-02-10 15:00:00 9 15 Noroeste 34 Noroeste 0.2 -- -- 93
2019-02-10 14:00:00 9.8 14 Noroeste 37 Noroeste 0.2 -- -- 94
2019-02-10 13:00:00 9.4 14 Oeste 46 Oeste 0.8 -- -- 98
2019-02-10 12:00:00 9.5 20 Noroeste 44 Norte 1.2 -- -- 95
2019-02-10 11:00:00 9.9 17 Oeste 39 Oeste 0 -- -- 89
2019-02-10 10:00:00 9.1 22 Noroeste 50 Noroeste 2.6 -- -- 96
2019-02-10 09:00:00 11.9 16 Oeste 62 Noroeste 0.4 -- -- 92
2019-02-10 08:00:00 15.9 21 Sudoeste 36 Sur 0 -- -- 51
2019-02-10 07:00:00 14.5 16 Sur 25 Sudoeste 0 -- -- 55
2019-02-10 06:00:00 13.4 12 Sur 22 Sur 0 -- -- 58
2019-02-10 05:00:00 13.1 13 Sur 27 Sur 0 -- -- 60
2019-02-10 04:00:00 13.4 21 Sur 31 Sur 0 -- -- 56
2019-02-10 03:00:00 12 11 Sur 26 Sur 0 -- -- 63
2019-02-10 02:00:00 12.8 23 Sur 33 Sur 0 -- -- 58
2019-02-10 01:00:00 10.5 13 Sur 17 Sur 0 -- -- 68
2019-02-10 00:00:00 10.7 11 Sur 17 Sudoeste 0 -- -- 67
2019-02-09 23:00:00 11.1 4 Sur 11 Sur 0 -- -- 62
2019-02-09 22:00:00 12 0 Calma 6 Sur 0 -- -- 59
2019-02-09 21:00:00 12.4 2 Norte 12 Sudoeste 0 -- -- 57
2019-02-09 20:00:00 12.9 8 Sudoeste 19 Sudoeste 0 -- -- 56
2019-02-09 19:00:00 14 10 Sudoeste 20 Sudoeste 0 -- -- 55
2019-02-09 18:00:00 14 4 Sur 13 Sudeste 0 -- -- 62
2019-02-09 17:00:00 14 9 Sur 26 Sudeste 0 -- -- 63
2019-02-09 16:00:00 14.7 14 Sur 24 Sur 0 -- -- 59
2019-02-09 15:00:00 15.1 15 Sur 26 Sudeste 0 -- -- 61
2019-02-09 14:00:00 15.9 11 Sur 19 Sur 0 -- -- 58
2019-02-09 13:00:00 16.5 17 Sur 26 Sur 0 -- -- 52
2019-02-09 12:00:00 14.9 11 Sur 14 Sur 0 -- -- 62
2019-02-09 11:00:00 11.8 12 Sur 16 Sudoeste 0 -- -- 73
2019-02-09 10:00:00 9.3 8 Sur 15 Sudoeste 0 -- -- 81
2019-02-09 09:00:00 6.9 5 Sudoeste 13 Sur 0 -- -- 87
2019-02-09 08:00:00 7.3 5 Sur 12 Sudoeste 0 -- -- 84
2019-02-09 07:00:00 7.9 8 Sudoeste 14 Noroeste 0 -- -- 82
2019-02-09 06:00:00 8.6 6 Noroeste 17 Noroeste 0 -- -- 79
2019-02-09 05:00:00 8.3 5 Sudoeste 12 Sudoeste 0 -- -- 73
2019-02-09 04:00:00 10 9 Sudoeste 17 Sudoeste 0 -- -- 66
2019-02-09 03:00:00 10.1 8 Sudoeste 16 Sudoeste 0 -- -- 65
2019-02-09 02:00:00 10.2 12 Sudoeste 18 Sudoeste 0 -- -- 66
2019-02-09 01:00:00 9.8 12 Sudoeste 15 Sudoeste 0 -- -- 67
2019-02-09 00:00:00 9.7 5 Sudoeste 12 Oeste 0 -- -- 69
2019-02-08 23:00:00 9.5 6 Sur 9 Sudoeste 0 -- -- 70
2019-02-08 22:00:00 10.1 8 Sudoeste 16 Sudoeste 0 -- -- 71
2019-02-08 21:00:00 10.4 9 Sudoeste 13 Sudoeste 0 -- -- 68
2019-02-08 20:00:00 11.1 7 Sudeste 12 Sudeste 0 -- -- 64
2019-02-08 19:00:00 11.8 9 Sudeste 18 Sudeste 0 -- -- 64
2019-02-08 18:00:00 12.2 5 Sudeste 17 Sudeste 0 -- -- 70
2019-02-08 17:00:00 13.2 4 Sudeste 14 Sudeste 0 -- -- 73
2019-02-08 16:00:00 12.9 8 Sur 15 Sur 0 -- -- 72
2019-02-08 15:00:00 11.9 9 Norte 18 Noroeste 0 -- -- 74
2019-02-08 14:00:00 11.5 9 Norte 21 Norte 0 -- -- 77
2019-02-08 13:00:00 11.9 7 Norte 12 Norte 0 -- -- 69
2019-02-08 12:00:00 11.3 7 Norte 11 Norte 0 -- -- 75
2019-02-08 11:00:00 10 3 Sur 11 Sudoeste 0 -- -- 80
2019-02-08 10:00:00 7.1 8 Sur 12 Sudoeste 0 -- -- 86
2019-02-08 09:00:00 5.6 4 Sudoeste 16 Sudoeste 0 -- -- 89
2019-02-08 08:00:00 5.2 7 Sudoeste 13 Oeste 0 -- -- 90
2019-02-08 07:00:00 5 8 Sudoeste 14 Sudoeste 0 -- -- 94
2019-02-08 06:00:00 5.4 4 Sur 19 Sudoeste 0 -- -- 89
2019-02-08 05:00:00 6 10 Sudoeste 17 Sudoeste 0 -- -- 90
2019-02-08 04:00:00 5.7 10 Sudoeste 15 Sudoeste 0 -- -- 91
2019-02-08 03:00:00 6.5 8 Sudoeste 13 Sudoeste 0 -- -- 90
2019-02-08 02:00:00 6.1 8 Sudoeste 15 Sudoeste 0 -- -- 93
2019-02-08 01:00:00 6.3 7 Sudoeste 14 Sudoeste 0 -- -- 92
2019-02-08 00:00:00 6.7 3 Sudeste 4 Sudeste 0 -- -- 93
2019-02-07 23:00:00 6.8 3 Sur 7 Sudeste 0 -- -- 90
2019-02-07 22:00:00 8.3 0 Calma 6 Sudoeste 0 -- -- 84
2019-02-07 21:00:00 9.3 4 Sudoeste 5 Sudoeste 0 -- -- 79
2019-02-07 20:00:00 9.5 0 Calma 4 Sur 0 -- -- 81
2019-02-07 19:00:00 9.7 3 Sur 6 Oeste 0 -- -- 85
2019-02-07 18:00:00 10.5 3 Oeste 6 Oeste 0 -- -- 80
2019-02-07 17:00:00 11.1 5 Oeste 13 Noroeste 0 -- -- 75
2019-02-07 16:00:00 12.1 5 Oeste 13 Oeste 0 -- -- 68
2019-02-07 15:00:00 11.7 5 Noroeste 18 Sudoeste 0 -- -- 71
2019-02-07 14:00:00 11.5 8 Noroeste 20 Oeste 0 -- -- 72
2019-02-07 13:00:00 11.2 6 Sudoeste 17 Sudoeste 0 -- -- 82
2019-02-07 12:00:00 10 5 Sudoeste 17 Oeste 0 -- -- 88
2019-02-07 11:00:00 9.3 7 Sudoeste 22 Oeste 0 -- -- 93
2019-02-07 10:00:00 9.4 11 Noroeste 31 Noroeste 0.6 -- -- 96
2019-02-07 09:00:00 9.7 19 Noroeste 33 Noroeste 0 -- -- 95
2019-02-07 08:00:00 9.5 5 Sudoeste 15 Sudoeste 0 -- -- 91
2019-02-07 07:00:00 9.3 10 Sudoeste 14 Sudoeste 0 -- -- 92
2019-02-07 06:00:00 9.5 8 Sudoeste 17 Oeste 0 -- -- 93
2019-02-07 05:00:00 10.3 5 Sudoeste 18 Noroeste 0 -- -- 90
2019-02-07 04:00:00 9.1 10 Sudoeste 20 Sudoeste 0 -- -- 84
2019-02-07 03:00:00 9.1 10 Sudoeste 17 Sudoeste 0 -- -- 88
2019-02-07 02:00:00 8.4 10 Sudoeste 14 Sudoeste 0 -- -- 95
2019-02-07 01:00:00 9.5 10 Sudoeste 19 Sudoeste 0 -- -- 92
2019-02-07 00:00:00 9.8 12 Sudoeste 17 Sudoeste 0 -- -- 95
2019-02-06 23:00:00 9.4 9 Sudoeste 16 Sudoeste 0 -- -- 98
2019-02-06 22:00:00 9.3 10 Sudoeste 15 Sudoeste 0 -- -- 98
2019-02-06 21:00:00 9.8 4 Sudoeste 17 Noroeste 0 -- -- 97
2019-02-06 20:00:00 9.6 6 Oeste 16 Noroeste 0 -- -- 95
2019-02-06 19:00:00 10.1 5 Sur 16 Noroeste 0 -- -- 88
2019-02-06 18:00:00 11.3 6 Noroeste 15 Noroeste 0 -- -- 87
2019-02-06 17:00:00 12 6 Oeste 26 Oeste 0 -- -- 82
2019-02-06 16:00:00 12.5 13 Noroeste 28 Noroeste 0 -- -- 79
2019-02-06 15:00:00 13.4 12 Noroeste 18 Norte 0 -- -- 75
2019-02-06 14:00:00 13.9 6 Norte 12 Norte 0 -- -- 74
2019-02-06 13:00:00 15 0 Calma 10 Noroeste 0 -- -- 64
2019-02-06 12:00:00 13.8 3 Nordeste 11 Sudoeste 0 -- -- 69
2019-02-06 11:00:00 11.3 9 Sur 13 Sur 0 -- -- 78
2019-02-06 10:00:00 8.8 9 Sur 17 Sudoeste 0 -- -- 85
2019-02-06 09:00:00 5.5 9 Sudoeste 14 Sudoeste 0 -- -- 93
2019-02-06 08:00:00 7.1 8 Sudoeste 17 Sudoeste 0 -- -- 84
2019-02-06 07:00:00 5.2 14 Sur 18 Sudoeste 0 -- -- 93
2019-02-06 06:00:00 5.6 10 Sudoeste 14 Sudoeste 0 -- -- 94
2019-02-06 05:00:00 6.2 10 Sudoeste 13 Sudoeste 0 -- -- 94
2019-02-06 04:00:00 6.9 10 Sudoeste 14 Sudoeste 0 -- -- 94
2019-02-06 03:00:00 7 8 Sudoeste 14 Sudoeste 0 -- -- 92
2019-02-06 02:00:00 6.2 9 Sudoeste 12 Sudoeste 0 -- -- 92
2019-02-06 01:00:00 6.7 6 Sudoeste 13 Sudoeste 0 -- -- 92
2019-02-06 00:00:00 7.4 10 Sudoeste 14 Sur 0 -- -- 88
2019-02-05 23:00:00 8.3 8 Sudoeste 15 Sudoeste 0 -- -- 86
2019-02-05 22:00:00 9.3 6 Sudoeste 12 Sudoeste 0 -- -- 83
2019-02-05 21:00:00 10.3 3 Sudoeste 8 Sudoeste 0 -- -- 77
2019-02-05 20:00:00 10.6 0 Calma 0 Calma 0 -- -- 76
2019-02-05 19:00:00 10.9 0 Calma 5 Noroeste 0 -- -- 74
2019-02-05 18:00:00 12.1 4 Noroeste 13 Noroeste 0 -- -- 70
2019-02-05 17:00:00 13.5 11 Norte 21 Noroeste 0 -- -- 67
2019-02-05 16:00:00 14 12 Norte 20 Norte 0 -- -- 66
2019-02-05 15:00:00 15.1 13 Noroeste 17 Norte 0 -- -- 64
2019-02-05 14:00:00 14.7 10 Norte 17 Norte 0 -- -- 66
2019-02-05 13:00:00 14.8 8 Noroeste 14 Noroeste 0 -- -- 64
2019-02-05 12:00:00 14.5 9 Sur 13 Sudoeste 0 -- -- 70
2019-02-05 11:00:00 13.1 9 Sudoeste 18 Sudoeste 0 -- -- 72
2019-02-05 10:00:00 10.5 12 Sudoeste 22 Sudoeste 0 -- -- 79
2019-02-05 09:00:00 8.5 11 Sudoeste 20 Sudoeste 0 -- -- 85
2019-02-05 08:00:00 6.9 9 Sudoeste 15 Sudoeste 0 -- -- 91
2019-02-05 07:00:00 7.8 10 Sudoeste 16 Sudoeste 0 -- -- 90
2019-02-05 06:00:00 7.9 9 Sur 15 Sudoeste 0 -- -- 86
2019-02-05 05:00:00 9.4 9 Sudoeste 17 Sudoeste 0 -- -- 81
2019-02-05 04:00:00 10.4 9 Sudoeste 16 Sudoeste 0 -- -- 80
2019-02-05 03:00:00 9.9 10 Sudoeste 15 Sudoeste 0 -- -- 83
2019-02-05 02:00:00 9.9 7 Sudoeste 14 Sudoeste 0 -- -- 83
2019-02-05 01:00:00 10.3 7 Sudoeste 18 Sudoeste 0 -- -- 79
2019-02-05 00:00:00 10 10 Sudoeste 16 Sudoeste 0 -- -- 79
2019-02-04 23:00:00 9.3 6 Sudoeste 10 Sudoeste 0 -- -- 87
2019-02-04 22:00:00 9.7 4 Sudoeste 10 Sudoeste 0 -- -- 84
2019-02-04 21:00:00 9.8 6 Sudoeste 11 Sur 0 -- -- 87
2019-02-04 20:00:00 10.4 2 Sur 6 Este 0.2 -- -- 73
2019-02-04 19:00:00 10.6 3 Sur 5 Norte 0 -- -- 76
2019-02-04 18:00:00 11 3 Sudoeste 10 Sur 0 -- -- 80
2019-02-04 17:00:00 12 7 Sur 17 Sudoeste 0 -- -- 73
2019-02-04 16:00:00 13.4 3 Nordeste 9 Sudeste 0 -- -- 56
2019-02-04 15:00:00 13.7 4 Sudeste 9 Sudeste 0 -- -- 58
2019-02-04 14:00:00 13.6 3 Sudeste 8 Sudeste 0 -- -- 56
2019-02-04 13:00:00 12.1 5 Sur 13 Sur 0 -- -- 56
2019-02-04 12:00:00 10.3 10 Sur 18 Sudoeste 0 -- -- 56
2019-02-04 11:00:00 6.8 13 Sur 22 Sudoeste 0 -- -- 63
2019-02-04 10:00:00 5.6 10 Sur 18 Sudoeste 0 -- -- 62
2019-02-04 09:00:00 4.2 12 Sudoeste 19 Sur 0 -- -- 63
2019-02-04 08:00:00 5 11 Sudoeste 22 Sudoeste 0 -- -- 56
2019-02-04 07:00:00 3.4 10 Sudoeste 22 Sudoeste 0 -- -- 64
2019-02-04 06:00:00 2.8 13 Sudoeste 21 Sudoeste 0 -- -- 71
2019-02-04 05:00:00 2.2 9 Sudoeste 15 Sudoeste 0 -- -- 78
2019-02-04 04:00:00 1.9 10 Sudoeste 13 Sudoeste 0 -- -- 82
2019-02-04 03:00:00 1.6 7 Sur 13 Sudeste 0 -- -- 85
2019-02-04 02:00:00 1.8 6 Sur 13 Sudoeste 0 -- -- 86
2019-02-04 01:00:00 2.3 6 Sur 9 Sur 0 -- -- 87
2019-02-04 00:00:00 1.5 5 Sur 10 Sur 0 -- -- 92
2019-02-03 23:00:00 2.9 5 Sudoeste 12 Sudoeste 0 -- -- 88
2019-02-03 22:00:00 3.3 10 Sudoeste 15 Sudoeste 0 -- -- 87
2019-02-03 21:00:00 3.9 8 Sudoeste 14 Sudoeste 0 -- -- 87
2019-02-03 20:00:00 5.1 7 Sudoeste 13 Sudoeste 0 -- -- 82
2019-02-03 19:00:00 6.1 5 Sudoeste 9 Sudoeste 0 -- -- 79
2019-02-03 18:00:00 7.3 5 Sudoeste 13 Sudoeste 0 -- -- 76
2019-02-03 17:00:00 9.2 8 Sur 14 Sur 0 -- -- 70
2019-02-03 16:00:00 9.6 5 Sudoeste 15 Oeste 0 -- -- 68
2019-02-03 15:00:00 7.8 6 Oeste 26 Noroeste 0.8 -- -- 83
2019-02-03 14:00:00 8.8 6 Oeste 17 Sudoeste 0 -- -- 71
2019-02-03 13:00:00 9.4 8 Oeste 15 Oeste 0 -- -- 71
2019-02-03 12:00:00 7.2 4 Sudoeste 16 Sudoeste 0 -- -- 79
2019-02-03 11:00:00 6.7 11 Sudoeste 34 Nordeste 0 -- -- 80
2019-02-03 10:00:00 7.3 21 Norte 37 Norte 0 -- -- 73
2019-02-03 09:00:00 6.7 10 Norte 33 Norte 0 -- -- 73
2019-02-03 08:00:00 5.6 3 Noroeste 17 Oeste 0 -- -- 80
2019-02-03 07:00:00 6 6 Noroeste 29 Norte 0 -- -- 73
2019-02-03 06:00:00 5.5 17 Noroeste 43 Noroeste 0 -- -- 75
2019-02-03 05:00:00 5.9 9 Oeste 27 Norte 0 -- -- 75
2019-02-03 04:00:00 4.4 6 Norte 20 Oeste 0 -- -- 79
2019-02-03 03:00:00 4.9 7 Oeste 37 Oeste 0.4 -- -- 82
2019-02-03 02:00:00 4.5 8 Oeste 55 Norte 0 -- -- 81
2019-02-03 01:00:00 6.3 15 Norte 50 Norte 0 -- -- 72
2019-02-03 00:00:00 6.4 21 Norte 46 Noroeste 0.6 -- -- 74
2019-02-02 23:00:00 5 21 Norte 51 Norte 0.8 -- -- 82
2019-02-02 22:00:00 6.1 39 Norte 65 Norte 0.2 -- -- 73
2019-02-02 21:00:00 6.9 28 Norte 56 Norte 0.2 -- -- 70
2019-02-02 20:00:00 6.3 15 Noroeste 51 Norte 0 -- -- 81
2019-02-02 19:00:00 6.1 9 Oeste 51 Oeste 0.6 -- -- 86
2019-02-02 18:00:00 6.4 31 Noroeste 60 Noroeste 0 -- -- 72
2019-02-02 17:00:00 8 23 Noroeste 54 Noroeste 0 -- -- 68
2019-02-02 16:00:00 8.3 28 Norte 49 Norte 0 -- -- 70
2019-02-02 15:00:00 6.9 17 Noroeste 46 Noroeste 0 -- -- 79
2019-02-02 14:00:00 7.6 20 Noroeste 55 Norte 0.4 -- -- 78
2019-02-02 13:00:00 7.5 18 Noroeste 53 Noroeste 0.2 -- -- 76
2019-02-02 12:00:00 6.7 22 Noroeste 59 Noroeste 0.4 -- -- 79
2019-02-02 11:00:00 5.3 12 Noroeste 76 Noroeste 0.4 -- -- 85
2019-02-02 10:00:00 5.7 45 Norte 87 Noroeste 0.6 -- -- 78
2019-02-02 09:00:00 5.1 27 Noroeste 89 Norte 0.2 -- -- 88
2019-02-02 08:00:00 5.6 47 Noroeste 72 Norte 1 -- -- 82
2019-02-02 07:00:00 6.5 20 Noroeste 69 Noroeste 0.2 -- -- 77
2019-02-02 06:00:00 5.1 32 Noroeste 80 Noroeste 0.6 -- -- 91
2019-02-02 05:00:00 6.8 46 Norte 72 Norte 0.2 -- -- 91
2019-02-02 04:00:00 5.7 39 Noroeste 75 Noroeste 2.8 -- -- 99
2019-02-02 03:00:00 5.8 36 Noroeste 81 Noroeste 3.2 -- -- 98
2019-02-02 02:00:00 6.5 37 Noroeste 75 Norte 1.6 -- -- 96
2019-02-02 01:00:00 6.5 30 Noroeste 80 Noroeste 2.4 -- -- 98
2019-02-02 00:00:00 6.5 35 Noroeste 62 Noroeste 1.4 -- -- 95
2019-02-01 23:00:00 7.7 17 Noroeste 36 Noroeste 0 -- -- 84
2019-02-01 22:00:00 7.3 18 Norte 33 Noroeste 0.2 -- -- 90
2019-02-01 21:00:00 6 11 Sudoeste 33 Sudoeste 0.8 -- -- 91
2019-02-01 20:00:00 6.3 13 Sudoeste 37 Oeste 1.2 -- -- 82
2019-02-01 19:00:00 8.3 11 Oeste 30 Oeste 0 -- -- 71
2019-02-01 18:00:00 8.7 8 Oeste 36 Oeste 0 -- -- 67
2019-02-01 17:00:00 9.9 11 Noroeste 35 Oeste 0 -- -- 64
2019-02-01 16:00:00 10.6 8 Oeste 32 Sudoeste 0 -- -- 60
2019-02-01 15:00:00 9.8 9 Oeste 25 Oeste 0 -- -- 63
2019-02-01 14:00:00 10 14 Oeste 28 Oeste 0 -- -- 64
2019-02-01 13:00:00 9.8 3 Este 10 Este 0 -- -- 80
2019-02-01 12:00:00 9.6 4 Este 14 Sudeste 0 -- -- 79
2019-02-01 11:00:00 8.1 4 Noroeste 8 Noroeste 0 -- -- 86
2019-02-01 10:00:00 7.4 3 Norte 9 Sudeste 0.2 -- -- 88
2019-02-01 09:00:00 7.3 4 Sudoeste 24 Oeste 0 -- -- 87
2019-02-01 08:00:00 8.2 12 Oeste 28 Oeste 0 -- -- 84
2019-02-01 07:00:00 7.6 17 Sudoeste 27 Sur 0 -- -- 88
2019-02-01 06:00:00 6.8 0 Calma 18 Este 0 -- -- 100
2019-02-01 05:00:00 7.5 6 Sudeste 15 Sudeste 0 -- -- 100
2019-02-01 04:00:00 7.8 4 Sur 13 Sudeste 0 -- -- 100
2019-02-01 03:00:00 8.3 0 Calma 11 Sudeste 0.4 -- -- 100
2019-02-01 02:00:00 8.9 4 Sur 10 Sur 1.2 -- -- 100
2019-02-01 01:00:00 9.1 2 Sudeste 8 Sudeste 0.4 -- -- 100
2019-02-01 00:00:00 9.2 5 Nordeste 13 Norte 0.2 -- -- 100
2019-01-31 23:00:00 9.4 5 Sudeste 12 Sudeste 0.4 -- -- 100
2019-01-31 22:00:00 9.5 0 Calma 6 Sur 0.4 -- -- 100
2019-01-31 21:00:00 9.7 5 Sur 15 Oeste 0.2 -- -- 99
2019-01-31 20:00:00 9.9 6 Oeste 27 Oeste 0.8 -- -- 99
2019-01-31 19:00:00 10.1 12 Noroeste 39 Noroeste 3.8 -- -- 100
2019-01-31 18:00:00 10.3 17 Noroeste 37 Oeste 4.8 -- -- 99
2019-01-31 17:00:00 10.3 17 Noroeste 44 Noroeste 1.8 -- -- 98
2019-01-31 16:00:00 13.4 12 Noroeste 29 Noroeste 0.2 -- -- 92
2019-01-31 15:00:00 14.3 16 Norte 24 Noroeste 0 -- -- 88
2019-01-31 14:00:00 14.5 2 Nordeste 9 Sudeste 0 -- -- 86
2019-01-31 13:00:00 14.3 3 Sur 5 Sudoeste 0 -- -- 84
2019-01-31 12:00:00 12.7 3 Sudoeste 8 Sur 0 -- -- 93
2019-01-31 11:00:00 12.4 4 Sur 9 Sudoeste 0 -- -- 94
2019-01-31 10:00:00 11 6 Sudoeste 14 Sudoeste 0 -- -- 95
2019-01-31 09:00:00 10.5 11 Sudoeste 19 Sudoeste 0.2 -- -- 96
2019-01-31 08:00:00 9.8 10 Sudoeste 19 Sudoeste 0.8 -- -- 99
2019-01-31 07:00:00 9.8 9 Sudoeste 18 Sudoeste 0.6 -- -- 99
2019-01-31 06:00:00 9.6 6 Sudoeste 16 Sudoeste 1.2 -- -- 100
2019-01-31 05:00:00 9.8 10 Sur 21 Sudoeste 4 -- -- 100
2019-01-31 04:00:00 9 10 Sudoeste 19 Sudoeste 1 -- -- 100
2019-01-31 03:00:00 8.5 8 Sur 18 Sudoeste 3.4 -- -- 100
2019-01-31 02:00:00 8.5 9 Sur 18 Sudoeste 1.4 -- -- 97
2019-01-31 01:00:00 8.5 9 Sur 17 Sudoeste 1.4 -- -- 96
2019-01-31 00:00:00 7.8 8 Sudoeste 12 Sur 0.6 -- -- 98
2019-01-30 23:00:00 7.5 8 Sudoeste 10 Sudoeste 0.4 -- -- 99
2019-01-30 22:00:00 7.3 6 Sudeste 11 Sur 1.4 -- -- 98
2019-01-30 21:00:00 7.4 7 Sur 15 Sudoeste 1.2 -- -- 95
2019-01-30 20:00:00 7.6 9 Sudoeste 13 Sudoeste 0.6 -- -- 90
2019-01-30 19:00:00 8.4 6 Sur 8 Sur 0.2 -- -- 80
2019-01-30 18:00:00 9.5 3 Sur 8 Nordeste 0 -- -- 73
2019-01-30 17:00:00 10.5 0 Calma 9 Sudeste 0 -- -- 61
2019-01-30 16:00:00 10.9 6 Sudeste 10 Sudeste 0 -- -- 57
2019-01-30 15:00:00 11.2 3 Este 9 Este 0 -- -- 54
2019-01-30 14:00:00 11.5 3 Este 10 Noroeste 0 -- -- 52
2019-01-30 13:00:00 11.1 3 Sudoeste 16 Sur 0 -- -- 56
2019-01-30 12:00:00 11 8 Sur 13 Sudoeste 0 -- -- 62
2019-01-30 11:00:00 8.9 5 Sudoeste 19 Sudoeste 0 -- -- 65
2019-01-30 10:00:00 7.4 7 Sudoeste 19 Norte 0 -- -- 72
2019-01-30 09:00:00 7 5 Oeste 21 Sudoeste 0 -- -- 71
2019-01-30 08:00:00 6.4 9 Sudoeste 29 Oeste 0 -- -- 78
2019-01-30 07:00:00 6.1 6 Sudoeste 31 Oeste 0.6 -- -- 93
2019-01-30 06:00:00 6.2 15 Oeste 41 Oeste 0.4 -- -- 92
2019-01-30 05:00:00 6.6 15 Oeste 40 Noroeste 0.2 -- -- 86
2019-01-30 04:00:00 6.6 13 Oeste 37 Oeste 0.2 -- -- 87
2019-01-30 03:00:00 6.3 13 Oeste 32 Oeste 0.4 -- -- 89
2019-01-30 02:00:00 5.8 10 Oeste 45 Oeste 0.2 -- -- 90
2019-01-30 01:00:00 6 13 Oeste 41 Oeste 0.6 -- -- 91
2019-01-30 00:00:00 6.4 12 Oeste 47 Noroeste 0.2 -- -- 89
2019-01-29 23:00:00 6.1 11 Noroeste 47 Oeste 1.2 -- -- 91
2019-01-29 22:00:00 6.8 15 Oeste 54 Oeste 0.6 -- -- 90
2019-01-29 21:00:00 8.5 23 Noroeste 50 Noroeste 0 -- -- 78
2019-01-29 20:00:00 7.4 21 Oeste 76 Oeste 2 -- -- 89
2019-01-29 19:00:00 8 19 Noroeste 53 Oeste 3.4 -- -- 93
2019-01-29 18:00:00 7.8 19 Oeste 55 Oeste 1.8 -- -- 91
2019-01-29 17:00:00 8.6 15 Oeste 51 Noroeste 4.4 -- -- 93
2019-01-29 16:00:00 9.3 20 Oeste 64 Oeste 2.8 -- -- 93
2019-01-29 15:00:00 9.3 25 Noroeste 60 Noroeste 1.4 -- -- 92
2019-01-29 14:00:00 10.8 27 Oeste 59 Noroeste 0.4 -- -- 90
2019-01-29 13:00:00 8.8 9 Sur 15 Sur 0.8 -- -- 95
2019-01-29 12:00:00 8.5 7 Sudoeste 13 Sudoeste 0.6 -- -- 92
2019-01-29 11:00:00 8.2 8 Sudoeste 17 Sur 0.6 -- -- 89
2019-01-29 10:00:00 8.1 10 Sudoeste 18 Sudoeste 0 -- -- 87
2019-01-29 09:00:00 7.3 10 Sudoeste 14 Sudoeste 0 -- -- 88
2019-01-29 08:00:00 6.7 8 Sudoeste 15 Sudoeste 0.2 -- -- 92
2019-01-29 07:00:00 7.4 6 Sudoeste 14 Sudoeste 0.2 -- -- 85
2019-01-29 06:00:00 7.6 9 Sudoeste 17 Sudoeste 0 -- -- 82
2019-01-29 05:00:00 7.9 8 Sudoeste 15 Sudoeste 0 -- -- 81
2019-01-29 04:00:00 8.6 5 Sudoeste 15 Sudoeste 0 -- -- 78
2019-01-29 03:00:00 8.3 6 Sudoeste 19 Oeste 0 -- -- 80
2019-01-29 02:00:00 8.1 8 Sudoeste 19 Sudoeste 0 -- -- 82
2019-01-29 01:00:00 8.1 10 Sudoeste 29 Oeste 0 -- -- 85
2019-01-29 00:00:00 8.3 8 Oeste 22 Oeste 0.4 -- -- 89
2019-01-28 23:00:00 8.2 8 Oeste 26 Oeste 1.2 -- -- 92
2019-01-28 22:00:00 9 10 Oeste 32 Oeste 0 -- -- 84
2019-01-28 21:00:00 9.3 18 Noroeste 41 Oeste 0 -- -- 87
2019-01-28 20:00:00 9 16 Noroeste 41 Oeste 1.4 -- -- 88
2019-01-28 19:00:00 9.4 15 Noroeste 41 Oeste 0.2 -- -- 89
2019-01-28 18:00:00 9.5 21 Noroeste 47 Noroeste 0.4 -- -- 89
2019-01-28 17:00:00 9.3 17 Noroeste 42 Noroeste 0.4 -- -- 94
2019-01-28 16:00:00 9.3 21 Noroeste 69 Noroeste 0 -- -- 93
2019-01-28 15:00:00 9.7 19 Noroeste 42 Noroeste 0.2 -- -- 89
2019-01-28 14:00:00 8.4 21 Noroeste 56 Norte 1.4 -- -- 98
2019-01-28 13:00:00 8.5 18 Noroeste 45 Noroeste 3.4 -- -- 98
2019-01-28 12:00:00 8.5 27 Noroeste 57 Noroeste 5.2 -- -- 94
2019-01-28 11:00:00 9.8 15 Oeste 48 Oeste 0 -- -- 92
2019-01-28 10:00:00 9.4 18 Noroeste 54 Noroeste 1.8 -- -- 100
2019-01-28 09:00:00 8.8 21 Noroeste 64 Noroeste 6.8 -- -- 99
2019-01-28 08:00:00 9.7 22 Noroeste 55 Oeste 0.6 -- -- 94
2019-01-28 07:00:00 10.2 18 Oeste 55 Oeste 0 -- -- 84
2019-01-28 06:00:00 9.8 18 Oeste 44 Sudoeste 0.2 -- -- 87
2019-01-28 05:00:00 9.4 17 Oeste 46 Noroeste 0.2 -- -- 92
2019-01-28 04:00:00 8.9 14 Oeste 44 Oeste 0.2 -- -- 92
2019-01-28 03:00:00 9.2 15 Oeste 48 Noroeste 0 -- -- 84
2019-01-28 02:00:00 8.2 9 Sudoeste 33 Oeste 0 -- -- 80
2019-01-28 01:00:00 7.8 9 Oeste 36 Oeste 0 -- -- 80
2019-01-28 00:00:00 7.8 13 Oeste 34 Oeste 0.2 -- -- 83
2019-01-27 23:00:00 8 14 Oeste 35 Noroeste 0.2 -- -- 82
2019-01-27 22:00:00 7.1 11 Oeste 40 Oeste 0.4 -- -- 89
2019-01-27 21:00:00 7.2 10 Oeste 39 Oeste 0.8 -- -- 91
2019-01-27 20:00:00 7.4 14 Oeste 41 Oeste 0.2 -- -- 90
2019-01-27 19:00:00 7.9 14 Oeste 42 Noroeste 0.8 -- -- 88
2019-01-27 18:00:00 7.7 10 Oeste 55 Noroeste 0.6 -- -- 93
2019-01-27 17:00:00 8.4 15 Noroeste 53 Oeste 0.8 -- -- 86
2019-01-27 16:00:00 8.9 20 Noroeste 45 Noroeste 0.4 -- -- 84
2019-01-27 15:00:00 7.7 15 Oeste 42 Oeste 0.4 -- -- 91
2019-01-27 14:00:00 9.1 13 Oeste 48 Noroeste 0 -- -- 81
2019-01-27 13:00:00 9 28 Noroeste 52 Noroeste 0.2 -- -- 84
2019-01-27 12:00:00 7.2 17 Oeste 53 Oeste 5 -- -- 95
2019-01-27 11:00:00 7.6 18 Noroeste 45 Noroeste 2.6 -- -- 93
2019-01-27 10:00:00 7.5 15 Oeste 52 Noroeste 3.6 -- -- 96
2019-01-27 09:00:00 6.8 17 Noroeste 59 Noroeste 1 -- -- 94
2019-01-27 08:00:00 8.8 19 Oeste 42 Sudoeste 0 -- -- 75
2019-01-27 07:00:00 8.6 16 Oeste 50 Oeste 0 -- -- 76
2019-01-27 06:00:00 8.7 21 Oeste 55 Oeste 0 -- -- 81
2019-01-27 05:00:00 8.9 23 Oeste 58 Oeste 0.4 -- -- 96
2019-01-27 04:00:00 9.1 15 Oeste 45 Oeste 0.2 -- -- 95
2019-01-27 03:00:00 9 16 Oeste 46 Noroeste 2 -- -- 99
2019-01-27 02:00:00 8.6 5 Sudoeste 15 Sudoeste 0 -- -- 93
2019-01-27 01:00:00 8.3 6 Sudoeste 18 Sudoeste 0 -- -- 91
2019-01-27 00:00:00 8.2 7 Sudoeste 19 Sudoeste 0 -- -- 94
2019-01-26 23:00:00 8.4 8 Sudoeste 18 Sudoeste 0 -- -- 94
2019-01-26 22:00:00 8.5 8 Sudoeste 13 Sudoeste 0 -- -- 94
2019-01-26 21:00:00 8 7 Sudoeste 13 Sudoeste 0 -- -- 94
2019-01-26 20:00:00 8.1 6 Oeste 16 Noroeste 0 -- -- 92
2019-01-26 19:00:00 8.5 3 Sudoeste 14 Sudoeste 0 -- -- 91
2019-01-26 18:00:00 9.5 5 Sudoeste 23 Oeste 0 -- -- 91
2019-01-26 17:00:00 10 12 Noroeste 24 Noroeste 0 -- -- 89
2019-01-26 16:00:00 10.8 13 Norte 21 Noroeste 0 -- -- 83
2019-01-26 15:00:00 11.5 10 Norte 14 Norte 0 -- -- 81
2019-01-26 14:00:00 11.2 9 Noroeste 18 Noroeste 0 -- -- 76
2019-01-26 13:00:00 12.1 2 Sudoeste 9 Sur 0 -- -- 68
2019-01-26 12:00:00 10.4 8 Sur 16 Sur 0 -- -- 77
2019-01-26 11:00:00 8.6 11 Sur 17 Sur 0 -- -- 85
2019-01-26 10:00:00 7.3 11 Sudoeste 16 Sudoeste 0 -- -- 88
2019-01-26 09:00:00 5.7 10 Sudoeste 14 Sudoeste 0 -- -- 92
2019-01-26 08:00:00 5.8 8 Sudoeste 12 Sudoeste 0 -- -- 93
2019-01-26 07:00:00 6.9 8 Sudoeste 12 Sudoeste 0 -- -- 93
2019-01-26 06:00:00 7.4 6 Sur 12 Sudoeste 0 -- -- 94
2019-01-26 05:00:00 8.2 7 Sur 11 Sudoeste 0 -- -- 95
2019-01-26 04:00:00 8 8 Sur 13 Sur 0 -- -- 97
2019-01-26 03:00:00 8.1 7 Sudoeste 12 Sudoeste 0 -- -- 96
2019-01-26 02:00:00 8.6 7 Sur 14 Sudoeste 0 -- -- 92
2019-01-26 01:00:00 8.9 7 Sudoeste 14 Sudoeste 0 -- -- 91
2019-01-26 00:00:00 8.7 8 Sudoeste 14 Sudoeste 0 -- -- 95
2019-01-25 23:00:00 9.1 5 Oeste 11 Oeste 0 -- -- 98
2019-01-25 22:00:00 9.2 5 Sudoeste 14 Oeste 0 -- -- 99
2019-01-25 21:00:00 9.4 4 Oeste 13 Oeste 0.6 -- -- 99
2019-01-25 20:00:00 9.4 6 Sudoeste 23 Oeste 0 -- -- 96
2019-01-25 19:00:00 9.6 9 Oeste 20 Oeste 0 -- -- 97
2019-01-25 18:00:00 9.8 8 Oeste 22 Noroeste 0 -- -- 96
2019-01-25 17:00:00 10.1 7 Oeste 20 Oeste 0 -- -- 99
2019-01-25 16:00:00 10.1 8 Oeste 23 Oeste 0 -- -- 100
2019-01-25 15:00:00 9.5 9 Noroeste 28 Oeste 0.6 -- -- 100
2019-01-25 14:00:00 9.6 13 Noroeste 27 Noroeste 0.4 -- -- 100
2019-01-25 13:00:00 9.6 14 Noroeste 26 Noroeste 1.2 -- -- 100
2019-01-25 12:00:00 9.5 13 Noroeste 32 Oeste 0.4 -- -- 100
2019-01-25 11:00:00 9.8 10 Noroeste 39 Noroeste 1 -- -- 100
2019-01-25 10:00:00 9.5 26 Norte 44 Noroeste 0 -- -- 100
2019-01-25 09:00:00 9.8 12 Noroeste 34 Noroeste 0 -- -- 100
2019-01-25 08:00:00 9.6 14 Noroeste 28 Oeste 1.6 -- -- 100
2019-01-25 07:00:00 10 14 Noroeste 39 Noroeste 0.2 -- -- 100
2019-01-25 06:00:00 9.9 24 Noroeste 37 Noroeste 0 -- -- 100
2019-01-25 05:00:00 10.2 15 Noroeste 34 Noroeste 1.4 -- -- 100
2019-01-25 04:00:00 9.8 15 Noroeste 35 Noroeste 1.4 -- -- 100
2019-01-25 03:00:00 10 19 Noroeste 39 Norte 1.8 -- -- 100
2019-01-25 02:00:00 10 14 Noroeste 35 Oeste 0 -- -- 100
2019-01-25 01:00:00 10 15 Noroeste 33 Noroeste 0 -- -- 100
2019-01-25 00:00:00 9.8 19 Noroeste 42 Norte 0.4 -- -- 100
2019-01-24 23:00:00 10.1 18 Noroeste 37 Noroeste 0 -- -- 100
2019-01-24 22:00:00 10.3 24 Norte 43 Norte 1.2 -- -- 100
2019-01-24 21:00:00 10.5 17 Noroeste 40 Noroeste 0 -- -- 100
2019-01-24 20:00:00 10.6 14 Noroeste 37 Noroeste 0 -- -- 100
2019-01-24 19:00:00 10.5 21 Noroeste 45 Noroeste 3.2 -- -- 100
2019-01-24 18:00:00 10.7 18 Noroeste 45 Noroeste 0.4 -- -- 100
2019-01-24 17:00:00 10.7 24 Noroeste 45 Noroeste 0.4 -- -- 100
2019-01-24 16:00:00 10.5 22 Noroeste 47 Noroeste 2 -- -- 100
2019-01-24 15:00:00 10.5 15 Noroeste 44 Oeste 3.4 -- -- 100
2019-01-24 14:00:00 9.3 6 Norte 25 Norte 4.2 -- -- 100
2019-01-24 13:00:00 8.6 4 Nordeste 11 Este 8 -- -- 100
2019-01-24 12:00:00 8.8 3 Nordeste 10 Norte 4 -- -- 100
2019-01-24 11:00:00 8.7 3 Norte 12 Nordeste 12.2 -- -- 100
2019-01-24 10:00:00 9.1 8 Nordeste 21 Norte 9.2 -- -- 100
2019-01-24 09:00:00 9.3 6 Norte 15 Norte 4.8 -- -- 100
2019-01-24 08:00:00 9.3 9 Norte 35 Noroeste 2.4 -- -- 100
2019-01-24 07:00:00 9.5 12 Norte 31 Nordeste 2.8 -- -- 100
2019-01-24 06:00:00 9.5 15 Norte 30 Norte 0.8 -- -- 100
2019-01-24 05:00:00 9.4 17 Norte 30 Norte 1.6 -- -- 100
2019-01-24 04:00:00 9.3 18 Norte 35 Noroeste 1 -- -- 100
2019-01-24 03:00:00 9.5 22 Norte 42 Noroeste 1.4 -- -- 100
2019-01-24 02:00:00 9.6 29 Norte 50 Noroeste 4 -- -- 100
2019-01-24 01:00:00 9.6 33 Norte 55 Norte 7.8 -- -- 100
2019-01-24 00:00:00 9.5 31 Norte 57 Norte 2 -- -- 100
2019-01-23 23:00:00 9.4 28 Noroeste 59 Noroeste 1.2 -- -- 100
2019-01-23 22:00:00 9.6 31 Norte 59 Noroeste 3.8 -- -- 100
2019-01-23 21:00:00 9.6 22 Noroeste 48 Noroeste 0.6 -- -- 100
2019-01-23 20:00:00 9.2 24 Noroeste 52 Noroeste 1.4 -- -- 100
2019-01-23 19:00:00 9.1 22 Noroeste 56 Noroeste 0 -- -- 100
2019-01-23 18:00:00 9.7 23 Noroeste 60 Noroeste 0.4 -- -- 100
2019-01-23 17:00:00 9.7 26 Noroeste 49 Noroeste 0.2 -- -- 100
2019-01-23 16:00:00 9.6 22 Noroeste 54 Noroeste 1.2 -- -- 100
2019-01-23 15:00:00 9.4 24 Noroeste 56 Oeste 1.2 -- -- 100
2019-01-23 14:00:00 10 22 Noroeste 60 Noroeste 1.8 -- -- 100
2019-01-23 13:00:00 10.6 18 Noroeste 45 Norte 0 -- -- 95
2019-01-23 12:00:00 10.8 23 Noroeste 55 Noroeste 0.2 -- -- 91
2019-01-23 11:00:00 10.8 22 Noroeste 46 Noroeste 0 -- -- 93
2019-01-23 10:00:00 10.1 20 Noroeste 55 Noroeste 0.2 -- -- 96
2019-01-23 09:00:00 10.6 31 Noroeste 72 Noroeste 0.2 -- -- 95
2019-01-23 08:00:00 11 21 Noroeste 54 Noroeste 0 -- -- 95
2019-01-23 07:00:00 10.5 19 Noroeste 54 Oeste 0 -- -- 99
2019-01-23 06:00:00 10.8 27 Noroeste 71 Noroeste 2.8 -- -- 100
2019-01-23 05:00:00 9.6 19 Oeste 57 Oeste 2.8 -- -- 100
2019-01-23 04:00:00 9 17 Oeste 39 Oeste 1.4 -- -- 98
2019-01-23 03:00:00 8.2 11 Sudoeste 35 Oeste 3.2 -- -- 97
2019-01-23 02:00:00 9.1 12 Oeste 34 Noroeste 2.6 -- -- 99
2019-01-23 01:00:00 9 12 Noroeste 37 Oeste 1.6 -- -- 99
2019-01-23 00:00:00 8.8 12 Noroeste 42 Noroeste 1.2 -- -- 100
2019-01-22 23:00:00 7.2 9 Noroeste 24 Sur 8.4 -- -- 100
2019-01-22 22:00:00 7.3 6 Sudoeste 30 Noroeste 3 -- -- 99
2019-01-22 21:00:00 6.8 12 Sudoeste 34 Oeste 3.4 -- -- 98
2019-01-22 20:00:00 6.5 13 Oeste 37 Oeste 5.4 -- -- 96
2019-01-22 19:00:00 6.1 10 Sudoeste 32 Sudoeste 3.6 -- -- 94
2019-01-22 18:00:00 6.2 9 Oeste 23 Oeste 2.8 -- -- 96
2019-01-22 17:00:00 6.3 11 Oeste 37 Oeste 2.8 -- -- 95
2019-01-22 16:00:00 6.7 9 Oeste 31 Oeste 2.2 -- -- 96
2019-01-22 15:00:00 7.1 8 Sudoeste 42 Oeste 1.6 -- -- 93
2019-01-22 14:00:00 7.7 11 Oeste 39 Noroeste 0 -- -- 92
2019-01-22 13:00:00 7.7 16 Noroeste 35 Oeste 4.4 -- -- 96
2019-01-22 12:00:00 7.9 10 Sudoeste 35 Oeste 0.2 -- -- 91
2019-01-22 11:00:00 7.1 8 Sudoeste 29 Oeste 2.6 -- -- 94
2019-01-22 10:00:00 7.4 10 Oeste 37 Oeste 1.6 -- -- 91
2019-01-22 09:00:00 8.1 9 Oeste 30 Oeste 0.4 -- -- 86
2019-01-22 08:00:00 7.1 8 Sudoeste 17 Sudoeste 0 -- -- 82
2019-01-22 07:00:00 8 8 Sudoeste 20 Oeste 0 -- -- 77
2019-01-22 06:00:00 6.3 8 Sudoeste 13 Sudoeste 0 -- -- 84
2019-01-22 05:00:00 6.1 6 Sudoeste 13 Sudoeste 0 -- -- 86
2019-01-22 04:00:00 6.3 7 Sudoeste 19 Sudoeste 0 -- -- 83
2019-01-22 03:00:00 6 12 Sudoeste 17 Sudoeste 0 -- -- 87
2019-01-22 02:00:00 6.2 8 Sudoeste 15 Sudoeste 0 -- -- 84
2019-01-22 01:00:00 6.5 10 Sudoeste 15 Sudoeste 0 -- -- 83
2019-01-22 00:00:00 6.2 8 Sudoeste 13 Sudoeste 0 -- -- 86
2019-01-21 23:00:00 6.1 5 Sudoeste 13 Sudoeste 0 -- -- 90
2019-01-21 22:00:00 6.2 7 Sudoeste 13 Oeste 0 -- -- 93
2019-01-21 21:00:00 7.2 8 Oeste 18 Oeste 0 -- -- 87
2019-01-21 20:00:00 7.4 4 Sudoeste 13 Oeste 0.2 -- -- 87
2019-01-21 19:00:00 7.9 5 Noroeste 10 Noroeste 0 -- -- 76
2019-01-21 18:00:00 8.1 3 Sudoeste 16 Noroeste 0 -- -- 80
2019-01-21 17:00:00 9.4 8 Noroeste 20 Norte 0 -- -- 72
2019-01-21 16:00:00 8.9 9 Noroeste 20 Noroeste 0 -- -- 80
2019-01-21 15:00:00 9.3 6 Noroeste 19 Noroeste 0 -- -- 76
2019-01-21 14:00:00 9 5 Oeste 17 Norte 0 -- -- 77
2019-01-21 13:00:00 10.4 8 Oeste 21 Oeste 0 -- -- 72
2019-01-21 12:00:00 9.3 6 Noroeste 14 Norte 0 -- -- 75
2019-01-21 11:00:00 7.9 7 Norte 15 Noroeste 0 -- -- 84
2019-01-21 10:00:00 6.9 7 Norte 14 Norte 0 -- -- 91
2019-01-21 09:00:00 6.6 9 Norte 14 Norte 0 -- -- 99
2019-01-21 08:00:00 6.8 0 Calma 18 Norte 0.2 -- -- 99
2019-01-21 07:00:00 6.9 15 Norte 31 Norte 2 -- -- 97
2019-01-21 06:00:00 7.8 11 Norte 20 Noroeste 0 -- -- 89
2019-01-21 05:00:00 7.6 14 Norte 28 Noroeste 0.8 -- -- 95
2019-01-21 04:00:00 6.8 7 Noroeste 25 Norte 0.4 -- -- 96
2019-01-21 03:00:00 7.8 14 Norte 31 Norte 0 -- -- 92
2019-01-21 02:00:00 8.1 9 Noroeste 23 Noroeste 0 -- -- 95
2019-01-21 01:00:00 7.4 16 Norte 41 Norte 0.6 -- -- 96
2019-01-21 00:00:00 6.9 8 Norte 41 Norte 1.8 -- -- 94
2019-01-20 23:00:00 8.8 19 Norte 31 Noroeste 0.2 -- -- 88
2019-01-20 22:00:00 8.6 19 Norte 34 Noroeste 0.2 -- -- 90
2019-01-20 21:00:00 8.7 8 Noroeste 20 Noroeste 0 -- -- 91
2019-01-20 20:00:00 8.3 10 Noroeste 30 Noroeste 0.4 -- -- 97
2019-01-20 19:00:00 7.8 9 Norte 32 Noroeste 8.6 -- -- 98
2019-01-20 18:00:00 8.3 7 Noroeste 27 Norte 1.2 -- -- 94
2019-01-20 17:00:00 9.9 10 Noroeste 35 Noroeste 0.2 -- -- 88
2019-01-20 16:00:00 10.1 13 Noroeste 36 Noroeste 0 -- -- 88
2019-01-20 15:00:00 9.9 14 Norte 35 Noroeste 0 -- -- 94
2019-01-20 14:00:00 9.6 8 Noroeste 32 Noroeste 0 -- -- 95
2019-01-20 13:00:00 7.6 14 Norte 43 Norte 1.4 -- -- 98
2019-01-20 12:00:00 8.9 13 Noroeste 49 Norte 4.2 -- -- 99
2019-01-20 11:00:00 7.8 20 Noroeste 58 Norte 3.2 -- -- 92
2019-01-20 10:00:00 8.4 11 Oeste 28 Noroeste 0 -- -- 96
2019-01-20 09:00:00 8.4 13 Noroeste 47 Noroeste 0.2 -- -- 91
2019-01-20 08:00:00 9.1 12 Noroeste 32 Noroeste 0.2 -- -- 88
2019-01-20 07:00:00 8.7 13 Noroeste 38 Noroeste 0 -- -- 83
2019-01-20 06:00:00 8.9 18 Noroeste 38 Noroeste 0 -- -- 92
2019-01-20 05:00:00 8.3 13 Norte 34 Norte 3.2 -- -- 100
2019-01-20 04:00:00 8.5 18 Noroeste 42 Noroeste 0.8 -- -- 97
2019-01-20 03:00:00 9 13 Noroeste 33 Noroeste 1 -- -- 96
2019-01-20 02:00:00 8.7 10 Oeste 21 Oeste 0.2 -- -- 99
2019-01-20 01:00:00 8.7 8 Noroeste 22 Noroeste 0.6 -- -- 100
2019-01-20 00:00:00 8.6 10 Noroeste 18 Noroeste 1.2 -- -- 100
2019-01-19 23:00:00 7.5 5 Sudoeste 10 Sudoeste 1.8 -- -- 100
2019-01-19 22:00:00 7.5 2 Sudoeste 9 Sur 1.2 -- -- 99
2019-01-19 21:00:00 7.9 5 Sur 10 Sudoeste 0 -- -- 95
2019-01-19 20:00:00 7.8 6 Sudoeste 9 Sur 0.2 -- -- 96
2019-01-19 19:00:00 7.5 8 Sur 12 Sur 0.2 -- -- 97
2019-01-19 18:00:00 7.5 5 Sur 11 Sur 0.8 -- -- 95
2019-01-19 17:00:00 7.9 8 Sur 13 Sur 0.4 -- -- 90
2019-01-19 16:00:00 8.6 9 Sur 14 Sur 0.2 -- -- 87
2019-01-19 15:00:00 9.2 6 Sur 13 Sur 0.2 -- -- 81
2019-01-19 14:00:00 9.9 8 Sur 17 Sudeste 0 -- -- 68
2019-01-19 13:00:00 9.6 11 Sur 24 Sudeste 0 -- -- 70
2019-01-19 12:00:00 9.1 13 Sudeste 21 Sudeste 0 -- -- 72
2019-01-19 11:00:00 9.2 12 Sur 17 Sudeste 0 -- -- 74
2019-01-19 10:00:00 7.2 9 Sur 18 Sur 0 -- -- 81
2019-01-19 09:00:00 6.5 6 Sur 17 Sur 0 -- -- 83
2019-01-19 08:00:00 6.3 10 Sudoeste 15 Sudoeste 0 -- -- 89
2019-01-19 07:00:00 7.4 8 Sudoeste 18 Sudoeste 0 -- -- 85
2019-01-19 06:00:00 7.5 11 Sudoeste 17 Sudoeste 0 -- -- 88
2019-01-19 05:00:00 7.8 10 Sudoeste 19 Sudoeste 0 -- -- 89
2019-01-19 04:00:00 7.9 12 Sudoeste 17 Sudoeste 0 -- -- 91
2019-01-19 03:00:00 7.9 13 Sudoeste 19 Sudoeste 0.2 -- -- 94
2019-01-19 02:00:00 7.9 8 Sudoeste 14 Sudoeste 0.2 -- -- 93
2019-01-19 01:00:00 7.8 10 Sudoeste 14 Sudoeste 0 -- -- 94
2019-01-19 00:00:00 8 9 Sudoeste 18 Sudoeste 0.2 -- -- 95